Terminal Aerodrome Forecast
Issued by NWS Pocatello, ID

Home | Current Version | Previous Version | Text Only | Print | Product List | Glossary On
Versions: 1 2 3 4 5 6 7 8 9 10 11 12 13 14 15 16 17
784
FTUS45 KPIH 241326 AAA
TAFBYI
TAF AMD
KBYI 241326Z 2413/2512 25013KT P6SM VCSH SCT035 OVC050
     FM241700 23014G24KT 6SM -SHSN BKN020 OVC040
     FM242000 23020G28KT 1SM -SN BLSN OVC010
     FM250500 26022KT 6SM BLSN OVC030=

USA.gov is the U.S. government's official web portal to all federal, state and local government web resources and services.